MSC Alexa — 3FPP6 — position and weather

sailwx.info

Track history (hours):
 
Tides and Currents Weather Stations Pressure Air Temp Water Temp Dewpoint Dewpoint Depression Visibility Wind Speed Wind Dir Waves Ship Positions

MSC Alexa

Last reported at 2014-Jul-26 12:05 UTC. Time now 2014-Jul-26 15:13 UTC.
Position N 57°08' E 007°52'.

Length 243 m; draft 12.7 m.

Type: Ship (hazmat cat A). MMSI: 356904000.

Date/timePositionNaut miles runAvg speedWind from/ knotsBaromVisibWave heightAir tempDewpointWater temp
2014-Jul-26 12:05N 57°08' E 007°52'1516.7
2014-Jul-26 11:13N 56°54' E 007°41'13316.8
2014-Jul-26 03:15N 54°43' E 007°01'1217.6
2014-Jul-26 02:33N 54°32' E 007°10'1818.0
2014-Jul-26 01:33N 54°16' E 007°25'1717.1
2014-Jul-26 00:34N 54°01' E 007°39'1514.9
2014-Jul-25 23:33N 53°51' E 007°58'1514.7
2014-Jul-25 22:33N 53°43' E 008°18'1111.2
2014-Jul-25 21:33N 53°35' E 008°32'0 0.3
2014-Jul-25 20:31N 53°35' E 008°32'0 0.0
2014-Jul-25 19:31N 53°35' E 008°32'0 0.0
2014-Jul-25 18:34N 53°35' E 008°32'0 0.0
2014-Jul-25 17:34N 53°35' E 008°32'0 0.0
2014-Jul-25 16:33N 53°35' E 008°32'0 0.0
2014-Jul-25 15:34N 53°35' E 008°32'0 0.0
2014-Jul-25 14:33N 53°35' E 008°32'0 0.0
2014-Jul-25 13:33N 53°35' E 008°32'0 0.0
2014-Jul-25 12:33N 53°35' E 008°32'0 0.0
2014-Jul-25 11:33N 53°35' E 008°32'0 0.0
2014-Jul-25 10:33N 53°35' E 008°32'0 0.0
2014-Jul-25 09:33N 53°35' E 008°32'0 0.0
2014-Jul-25 08:33N 53°35' E 008°32'0 0.0
2014-Jul-25 07:33N 53°35' E 008°32'0 0.0
2014-Jul-25 06:33N 53°35' E 008°32'0 0.0
2014-Jul-25 05:33N 53°35' E 008°32'0 0.0
2014-Jul-25 04:33N 53°35' E 008°32'0 0.0
2014-Jul-25 03:33N 53°35' E 008°32'0 0.0
2014-Jul-25 02:33N 53°35' E 008°32'0 0.0
2014-Jul-25 01:34N 53°35' E 008°32'0 0.0
2014-Jul-25 00:34N 53°35' E 008°32'0 0.0
2014-Jul-24 23:33N 53°35' E 008°32'0 0.0
2014-Jul-24 22:33N 53°35' E 008°32'0 0.0
2014-Jul-24 21:33N 53°35' E 008°32'0 0.5
2014-Jul-24 20:33N 53°35' E 008°32'1313.3
2014-Jul-24 19:34N 53°44' E 008°15'1615.5
2014-Jul-24 18:33N 53°52' E 007°52'1211.7
2014-Jul-24 17:33N 53°54' E 007°33'1716.7
2014-Jul-24 16:33N 53°51' E 007°05'1817.6
2014-Jul-24 15:33N 53°47' E 006°36'1717.1
2014-Jul-24 14:33N 53°42' E 006°08'1716.8
2014-Jul-24 13:33N 53°36' E 005°42'1716.6
2014-Jul-24 12:33N 53°31' E 005°15'1616.5
2014-Jul-24 11:33N 53°25' E 004°50'1615.7
2014-Jul-24 10:33N 53°12' E 004°34'1616.5
2014-Jul-24 09:33N 52°58' E 004°21'1616.2
2014-Jul-24 08:33N 52°44' E 004°07'1616.1
2014-Jul-24 07:33N 52°30' E 003°55'1616.1
2014-Jul-24 06:33N 52°17' E 003°38'1615.8
2014-Jul-24 05:33N 52°03' E 003°28'1616.1
2014-Jul-24 04:32N 51°48' E 003°17'1010.6
2014-Jul-24 03:34N 51°38' E 003°10'1514.5
2014-Jul-24 02:33N 51°25' E 003°03'1817.9
2014-Jul-24 01:33N 51°25' E 003°31'1110.7
2014-Jul-24 00:34N 51°21' E 003°47'1010.0
2014-Jul-23 23:33N 51°25' E 004°02'7 7.2
2014-Jul-23 22:33N 51°23' E 004°13'4 3.8
2014-Jul-23 21:34N 51°21' E 004°17'1 0.8
2014-Jul-23 20:34N 51°20' E 004°18'2 1.5
2014-Jul-23 19:33N 51°20' E 004°20'0 0.0
2014-Jul-23 18:29N 51°20' E 004°20'0 0.0
2014-Jul-23 17:32N 51°20' E 004°20'0 0.0
2014-Jul-23 16:29N 51°20' E 004°20'0 0.0
2014-Jul-23 15:31N 51°20' E 004°20'0 0.0
2014-Jul-23 14:28N 51°20' E 004°20'0 0.0
2014-Jul-23 13:33N 51°20' E 004°20'0 0.0
2014-Jul-23 12:33N 51°20' E 004°20'0 0.0
2014-Jul-23 11:30N 51°20' E 004°20'0 0.0
2014-Jul-23 10:32N 51°20' E 004°20'0 0.0
2014-Jul-23 09:29N 51°20' E 004°20'0 0.0
2014-Jul-23 08:31N 51°20' E 004°20'0 0.0
2014-Jul-23 07:31N 51°20' E 004°20'0 0.0
2014-Jul-23 06:27N 51°20' E 004°20'0 0.0
2014-Jul-23 04:29N 51°20' E 004°20'0 0.0
2014-Jul-23 03:32N 51°20' E 004°20'0 0.0
2014-Jul-23 02:29N 51°20' E 004°20'0 0.0
2014-Jul-23 01:31N 51°20' E 004°20'0 0.0
2014-Jul-23 00:28N 51°20' E 004°20'0 0.0
2014-Jul-22 23:33N 51°20' E 004°20'0 0.0
2014-Jul-22 22:33N 51°20' E 004°20'0 0.0
2014-Jul-22 21:26N 51°20' E 004°20'0 0.0
2014-Jul-22 20:29N 51°20' E 004°20'0 0.0
2014-Jul-22 19:32N 51°20' E 004°20'2 2.3
2014-Jul-22 18:33N 51°21' E 004°17'0 0.0
2014-Jul-22 17:33N 51°21' E 004°17'0 0.1
2014-Jul-22 16:33N 51°21' E 004°17'6 5.8
2014-Jul-22 15:34N 51°22' E 004°08'7 7.1
2014-Jul-22 14:33N 51°23' E 003°57'9 8.8
2014-Jul-22 13:33N 51°24' E 003°43'7 7.3
2014-Jul-22 12:33N 51°25' E 003°31'1010.5
2014-Jul-22 11:33N 51°25' E 003°14'1413.5
2014-Jul-22 10:33N 51°22' E 002°53'1010.3
2014-Jul-22 09:33N 51°22' E 002°37'7 6.7
2014-Jul-22 08:33N 51°21' E 002°26'6 6.4
2014-Jul-22 07:33N 51°17' E 002°18'9 8.9
2014-Jul-22 06:34N 51°13' E 002°05'8 8.5
2014-Jul-22 05:34N 51°09' E 001°53'11 9.6
2014-Jul-22 04:27N 51°02' E 001°40'1314.1
2014-Jul-22 03:33N 50°52' E 001°28'3014.9
2014-Jul-22 01:33N 50°29' E 000°59'1615.7
2014-Jul-22 00:33N 50°24' E 000°36'2914.4
2014-Jul-21 22:33N 50°09' W 000°03'1615.7
2014-Jul-21 21:33N 49°54' W 000°08'1616.0
2014-Jul-21 20:33N 49°38' W 000°10'416.3
2014-Jul-21 20:18N 49°33' W 000°10'911.5
2014-Jul-21 19:34N 49°30' E 000°02'5 4.5
2014-Jul-21 18:32N 49°28' E 000°08'0 0.0
2014-Jul-21 17:31N 49°28' E 000°08'0 0.0
2014-Jul-21 16:31N 49°28' E 000°08'0 0.0
2014-Jul-21 15:30N 49°28' E 000°08'0 0.0
2014-Jul-21 14:33N 49°28' E 000°08'0 0.0
2014-Jul-21 13:33N 49°28' E 000°08'0 0.0
2014-Jul-21 12:32N 49°28' E 000°08'0 0.0
2014-Jul-21 11:32N 49°28' E 000°08'0 0.0
2014-Jul-21 10:31N 49°28' E 000°08'0 0.0
2014-Jul-21 09:31N 49°28' E 000°08'0 0.0
2014-Jul-21 08:34N 49°28' E 000°08'0 0.0
2014-Jul-21 07:33N 49°28' E 000°08'0 0.0
2014-Jul-21 06:33N 49°28' E 000°08'0 0.0
2014-Jul-21 05:32N 49°28' E 000°08'0 0.0
2014-Jul-21 04:32N 49°28' E 000°08'0 0.0
2014-Jul-21 03:31N 49°28' E 000°08'0 0.0
2014-Jul-21 02:31N 49°28' E 000°08'0 0.0
2014-Jul-21 01:33N 49°28' E 000°08'0 0.0
2014-Jul-21 00:33N 49°28' E 000°08'0 0.0
2014-Jul-20 23:33N 49°28' E 000°08'0 0.0
2014-Jul-20 22:32N 49°28' E 000°08'0 0.0
2014-Jul-20 21:32N 49°28' E 000°08'0 0.0
2014-Jul-20 20:31N 49°28' E 000°08'0 0.0
2014-Jul-20 19:31N 49°28' E 000°08'0 0.0
2014-Jul-20 18:33N 49°28' E 000°08'0 0.1
2014-Jul-20 17:34N 49°28' E 000°08'1010.3
2014-Jul-20 16:33N 49°31' W 000°06'1111.1
2014-Jul-20 15:33N 49°37' W 000°22'2 1.6
2014-Jul-20 14:33N 49°37' W 000°24'5 4.9
2014-Jul-20 13:29N 49°42' W 000°23'1213.3
2014-Jul-20 12:33N 49°55' W 000°22'3416.6
2014-Jul-20 10:31N 50°26' W 000°03'1818.3
2014-Jul-20 09:33N 50°33' E 000°22'1818.2
2014-Jul-20 08:34N 50°42' E 000°48'1917.2
2014-Jul-20 07:28N 50°53' E 001°12'1415.8
2014-Jul-20 06:34N 51°02' E 001°29'1515.0
2014-Jul-20 05:33N 51°13' E 001°45'1716.7
2014-Jul-20 04:34N 51°28' E 001°58'1818.2
2014-Jul-20 03:33N 51°42' E 002°17'1918.9
2014-Jul-20 02:33N 51°56' E 002°38'4118.7
2014-Jul-20 00:21N 52°28' E 003°19'1417.3
2014-Jul-19 23:32N 52°39' E 003°34'3816.5
2014-Jul-19 21:12N 53°07' E 004°18'1015.7
2014-Jul-19 20:33N 53°15' E 004°27'1817.3
2014-Jul-19 19:30N 53°33' E 004°37'1817.9
2014-Jul-19 18:28N 53°50' E 004°46'1618.0
2014-Jul-19 17:34N 54°05' E 004°56'2417.7
2014-Jul-19 16:12N 54°27' E 005°14'1217.6
2014-Jul-19 15:31N 54°38' E 005°23'4027.5
2014-Jul-19 14:04N 55°13' E 005°56'4618.0
2014-Jul-19 11:30N 55°54' E 006°34'15715.7
2014-Jul-19 01:29N 57°43' E 009°60'1617.6
2014-Jul-19 00:34N 57°48' E 010°29'1615.8
2014-Jul-18 23:34N 57°43' E 010°57'1717.4
2014-Jul-18 22:33N 57°32' E 011°21'1717.2
2014-Jul-18 21:34N 57°16' E 011°34'1717.4
2014-Jul-18 20:33N 56°60' E 011°45'1716.6
2014-Jul-18 19:33N 56°43' E 011°50'2517.2
2014-Jul-18 18:06N 56°28' E 011°15'814.5
2014-Jul-18 17:33N 56°21' E 011°06'7715.1
2014-Jul-18 12:28N 55°05' E 010°59'1516.8
2014-Jul-18 11:33N 54°50' E 010°50'1414.4
2014-Jul-18 10:33N 54°37' E 010°58'1717.0
2014-Jul-18 09:34N 54°32' E 011°26'1716.9
2014-Jul-18 08:34N 54°26' E 011°53'1414.4
2014-Jul-18 07:34N 54°33' E 012°15'1111.4
2014-Jul-18 06:34N 54°41' E 012°29'1616.0
2014-Jul-18 05:34N 54°45' E 012°56'1817.8
2014-Jul-18 04:34N 54°45' E 013°27'1817.7
2014-Jul-18 03:34N 54°44' E 013°57'1817.5
2014-Jul-18 02:34N 54°38' E 014°25'1817.6
2014-Jul-18 01:33N 54°41' E 014°55'1817.7
2014-Jul-18 00:33N 54°43' E 015°26'1817.6
2014-Jul-17 23:32N 54°46' E 015°56'7017.6
2014-Jul-17 19:33N 55°02' E 017°56'2417.7
2014-Jul-17 18:11N 55°11' E 018°35'1217.5
2014-Jul-17 17:30N 55°15' E 018°55'  
Track history (hours):
 
Tides and Currents Weather Stations Pressure Air Temp Water Temp Dewpoint Dewpoint Depression Visibility Wind Speed Wind Dir Waves Ship Positions

MSC Alexa

Last reported at 2014-Jul-26 12:05 UTC. Time now 2014-Jul-26 15:13 UTC.
Position N 57°08' E 007°52'.

Length 243 m; draft 12.7 m.

Type: Ship (hazmat cat A). MMSI: 356904000.

Date/timePositionNaut miles runAvg speedWind from/ knotsBaromVisibWave heightAir tempDewpointWater temp
2014-Jul-26 12:05N 57°08' E 007°52'1516.7
2014-Jul-26 11:13N 56°54' E 007°41'13316.8
2014-Jul-26 03:15N 54°43' E 007°01'1217.6
2014-Jul-26 02:33N 54°32' E 007°10'1818.0
2014-Jul-26 01:33N 54°16' E 007°25'1717.1
2014-Jul-26 00:34N 54°01' E 007°39'1514.9
2014-Jul-25 23:33N 53°51' E 007°58'1514.7
2014-Jul-25 22:33N 53°43' E 008°18'1111.2
2014-Jul-25 21:33N 53°35' E 008°32'0 0.3
2014-Jul-25 20:31N 53°35' E 008°32'0 0.0
2014-Jul-25 19:31N 53°35' E 008°32'0 0.0
2014-Jul-25 18:34N 53°35' E 008°32'0 0.0
2014-Jul-25 17:34N 53°35' E 008°32'0 0.0
2014-Jul-25 16:33N 53°35' E 008°32'0 0.0
2014-Jul-25 15:34N 53°35' E 008°32'0 0.0
2014-Jul-25 14:33N 53°35' E 008°32'0 0.0
2014-Jul-25 13:33N 53°35' E 008°32'0 0.0
2014-Jul-25 12:33N 53°35' E 008°32'0 0.0
2014-Jul-25 11:33N 53°35' E 008°32'0 0.0
2014-Jul-25 10:33N 53°35' E 008°32'0 0.0
2014-Jul-25 09:33N 53°35' E 008°32'0 0.0
2014-Jul-25 08:33N 53°35' E 008°32'0 0.0
2014-Jul-25 07:33N 53°35' E 008°32'0 0.0
2014-Jul-25 06:33N 53°35' E 008°32'0 0.0
2014-Jul-25 05:33N 53°35' E 008°32'0 0.0
2014-Jul-25 04:33N 53°35' E 008°32'0 0.0
2014-Jul-25 03:33N 53°35' E 008°32'0 0.0
2014-Jul-25 02:33N 53°35' E 008°32'0 0.0
2014-Jul-25 01:34N 53°35' E 008°32'0 0.0
2014-Jul-25 00:34N 53°35' E 008°32'0 0.0
2014-Jul-24 23:33N 53°35' E 008°32'0 0.0
2014-Jul-24 22:33N 53°35' E 008°32'0 0.0
2014-Jul-24 21:33N 53°35' E 008°32'0 0.5
2014-Jul-24 20:33N 53°35' E 008°32'1313.3
2014-Jul-24 19:34N 53°44' E 008°15'1615.5
2014-Jul-24 18:33N 53°52' E 007°52'1211.7
2014-Jul-24 17:33N 53°54' E 007°33'1716.7
2014-Jul-24 16:33N 53°51' E 007°05'1817.6
2014-Jul-24 15:33N 53°47' E 006°36'1717.1
2014-Jul-24 14:33N 53°42' E 006°08'1716.8
2014-Jul-24 13:33N 53°36' E 005°42'1716.6
2014-Jul-24 12:33N 53°31' E 005°15'1616.5
2014-Jul-24 11:33N 53°25' E 004°50'1615.7
2014-Jul-24 10:33N 53°12' E 004°34'1616.5
2014-Jul-24 09:33N 52°58' E 004°21'1616.2
2014-Jul-24 08:33N 52°44' E 004°07'1616.1
2014-Jul-24 07:33N 52°30' E 003°55'1616.1
2014-Jul-24 06:33N 52°17' E 003°38'1615.8
2014-Jul-24 05:33N 52°03' E 003°28'1616.1
2014-Jul-24 04:32N 51°48' E 003°17'1010.6
2014-Jul-24 03:34N 51°38' E 003°10'1514.5
2014-Jul-24 02:33N 51°25' E 003°03'1817.9
2014-Jul-24 01:33N 51°25' E 003°31'1110.7
2014-Jul-24 00:34N 51°21' E 003°47'1010.0
2014-Jul-23 23:33N 51°25' E 004°02'7 7.2
2014-Jul-23 22:33N 51°23' E 004°13'4 3.8
2014-Jul-23 21:34N 51°21' E 004°17'1 0.8
2014-Jul-23 20:34N 51°20' E 004°18'2 1.5
2014-Jul-23 19:33N 51°20' E 004°20'0 0.0
2014-Jul-23 18:29N 51°20' E 004°20'0 0.0
2014-Jul-23 17:32N 51°20' E 004°20'0 0.0
2014-Jul-23 16:29N 51°20' E 004°20'0 0.0
2014-Jul-23 15:31N 51°20' E 004°20'0 0.0
2014-Jul-23 14:28N 51°20' E 004°20'0 0.0
2014-Jul-23 13:33N 51°20' E 004°20'0 0.0
2014-Jul-23 12:33N 51°20' E 004°20'0 0.0
2014-Jul-23 11:30N 51°20' E 004°20'0 0.0
2014-Jul-23 10:32N 51°20' E 004°20'0 0.0
2014-Jul-23 09:29N 51°20' E 004°20'0 0.0
2014-Jul-23 08:31N 51°20' E 004°20'0 0.0
2014-Jul-23 07:31N 51°20' E 004°20'0 0.0
2014-Jul-23 06:27N 51°20' E 004°20'0 0.0
2014-Jul-23 04:29N 51°20' E 004°20'0 0.0
2014-Jul-23 03:32N 51°20' E 004°20'0 0.0
2014-Jul-23 02:29N 51°20' E 004°20'0 0.0
2014-Jul-23 01:31N 51°20' E 004°20'0 0.0
2014-Jul-23 00:28N 51°20' E 004°20'0 0.0
2014-Jul-22 23:33N 51°20' E 004°20'0 0.0
2014-Jul-22 22:33N 51°20' E 004°20'0 0.0
2014-Jul-22 21:26N 51°20' E 004°20'0 0.0
2014-Jul-22 20:29N 51°20' E 004°20'0 0.0
2014-Jul-22 19:32N 51°20' E 004°20'2 2.3
2014-Jul-22 18:33N 51°21' E 004°17'0 0.0
2014-Jul-22 17:33N 51°21' E 004°17'0 0.1
2014-Jul-22 16:33N 51°21' E 004°17'6 5.8
2014-Jul-22 15:34N 51°22' E 004°08'7 7.1
2014-Jul-22 14:33N 51°23' E 003°57'9 8.8
2014-Jul-22 13:33N 51°24' E 003°43'7 7.3
2014-Jul-22 12:33N 51°25' E 003°31'1010.5
2014-Jul-22 11:33N 51°25' E 003°14'1413.5
2014-Jul-22 10:33N 51°22' E 002°53'1010.3
2014-Jul-22 09:33N 51°22' E 002°37'7 6.7
2014-Jul-22 08:33N 51°21' E 002°26'6 6.4
2014-Jul-22 07:33N 51°17' E 002°18'9 8.9
2014-Jul-22 06:34N 51°13' E 002°05'8 8.5
2014-Jul-22 05:34N 51°09' E 001°53'11 9.6
2014-Jul-22 04:27N 51°02' E 001°40'1314.1
2014-Jul-22 03:33N 50°52' E 001°28'3014.9
2014-Jul-22 01:33N 50°29' E 000°59'1615.7
2014-Jul-22 00:33N 50°24' E 000°36'2914.4
2014-Jul-21 22:33N 50°09' W 000°03'1615.7
2014-Jul-21 21:33N 49°54' W 000°08'1616.0
2014-Jul-21 20:33N 49°38' W 000°10'416.3
2014-Jul-21 20:18N 49°33' W 000°10'911.5
2014-Jul-21 19:34N 49°30' E 000°02'5 4.5
2014-Jul-21 18:32N 49°28' E 000°08'0 0.0
2014-Jul-21 17:31N 49°28' E 000°08'0 0.0
2014-Jul-21 16:31N 49°28' E 000°08'0 0.0
2014-Jul-21 15:30N 49°28' E 000°08'0 0.0
2014-Jul-21 14:33N 49°28' E 000°08'0 0.0
2014-Jul-21 13:33N 49°28' E 000°08'0 0.0
2014-Jul-21 12:32N 49°28' E 000°08'0 0.0
2014-Jul-21 11:32N 49°28' E 000°08'0 0.0
2014-Jul-21 10:31N 49°28' E 000°08'0 0.0
2014-Jul-21 09:31N 49°28' E 000°08'0 0.0
2014-Jul-21 08:34N 49°28' E 000°08'0 0.0
2014-Jul-21 07:33N 49°28' E 000°08'0 0.0
2014-Jul-21 06:33N 49°28' E 000°08'0 0.0
2014-Jul-21 05:32N 49°28' E 000°08'0 0.0
2014-Jul-21 04:32N 49°28' E 000°08'0 0.0
2014-Jul-21 03:31N 49°28' E 000°08'0 0.0
2014-Jul-21 02:31N 49°28' E 000°08'0 0.0
2014-Jul-21 01:33N 49°28' E 000°08'0 0.0
2014-Jul-21 00:33N 49°28' E 000°08'0 0.0
2014-Jul-20 23:33N 49°28' E 000°08'0 0.0
2014-Jul-20 22:32N 49°28' E 000°08'0 0.0
2014-Jul-20 21:32N 49°28' E 000°08'0 0.0
2014-Jul-20 20:31N 49°28' E 000°08'0 0.0
2014-Jul-20 19:31N 49°28' E 000°08'0 0.0
2014-Jul-20 18:33N 49°28' E 000°08'0 0.1
2014-Jul-20 17:34N 49°28' E 000°08'1010.3
2014-Jul-20 16:33N 49°31' W 000°06'1111.1
2014-Jul-20 15:33N 49°37' W 000°22'2 1.6
2014-Jul-20 14:33N 49°37' W 000°24'5 4.9
2014-Jul-20 13:29N 49°42' W 000°23'1213.3
2014-Jul-20 12:33N 49°55' W 000°22'3416.6
2014-Jul-20 10:31N 50°26' W 000°03'1818.3
2014-Jul-20 09:33N 50°33' E 000°22'1818.2
2014-Jul-20 08:34N 50°42' E 000°48'1917.2
2014-Jul-20 07:28N 50°53' E 001°12'1415.8
2014-Jul-20 06:34N 51°02' E 001°29'1515.0
2014-Jul-20 05:33N 51°13' E 001°45'1716.7
2014-Jul-20 04:34N 51°28' E 001°58'1818.2
2014-Jul-20 03:33N 51°42' E 002°17'1918.9
2014-Jul-20 02:33N 51°56' E 002°38'4118.7
2014-Jul-20 00:21N 52°28' E 003°19'1417.3
2014-Jul-19 23:32N 52°39' E 003°34'3816.5
2014-Jul-19 21:12N 53°07' E 004°18'1015.7
2014-Jul-19 20:33N 53°15' E 004°27'1817.3
2014-Jul-19 19:30N 53°33' E 004°37'1817.9
2014-Jul-19 18:28N 53°50' E 004°46'1618.0
2014-Jul-19 17:34N 54°05' E 004°56'2417.7
2014-Jul-19 16:12N 54°27' E 005°14'1217.6
2014-Jul-19 15:31N 54°38' E 005°23'4027.5
2014-Jul-19 14:04N 55°13' E 005°56'4618.0
2014-Jul-19 11:30N 55°54' E 006°34'15715.7
2014-Jul-19 01:29N 57°43' E 009°60'1617.6
2014-Jul-19 00:34N 57°48' E 010°29'1615.8
2014-Jul-18 23:34N 57°43' E 010°57'1717.4
2014-Jul-18 22:33N 57°32' E 011°21'1717.2
2014-Jul-18 21:34N 57°16' E 011°34'1717.4
2014-Jul-18 20:33N 56°60' E 011°45'1716.6
2014-Jul-18 19:33N 56°43' E 011°50'2517.2
2014-Jul-18 18:06N 56°28' E 011°15'814.5
2014-Jul-18 17:33N 56°21' E 011°06'7715.1
2014-Jul-18 12:28N 55°05' E 010°59'1516.8
2014-Jul-18 11:33N 54°50' E 010°50'1414.4
2014-Jul-18 10:33N 54°37' E 010°58'1717.0
2014-Jul-18 09:34N 54°32' E 011°26'1716.9
2014-Jul-18 08:34N 54°26' E 011°53'1414.4
2014-Jul-18 07:34N 54°33' E 012°15'1111.4
2014-Jul-18 06:34N 54°41' E 012°29'1616.0
2014-Jul-18 05:34N 54°45' E 012°56'1817.8
2014-Jul-18 04:34N 54°45' E 013°27'1817.7
2014-Jul-18 03:34N 54°44' E 013°57'1817.5
2014-Jul-18 02:34N 54°38' E 014°25'1817.6
2014-Jul-18 01:33N 54°41' E 014°55'1817.7
2014-Jul-18 00:33N 54°43' E 015°26'1817.6
2014-Jul-17 23:32N 54°46' E 015°56'7017.6
2014-Jul-17 19:33N 55°02' E 017°56'2417.7
2014-Jul-17 18:11N 55°11' E 018°35'1217.5
2014-Jul-17 17:30N 55°15' E 018°55'  

Dump ship's entire track history